sensor_id;sensor_type;location;lat;lon;timestamp;P1;durP1;ratioP1;P2;durP2;ratioP2
51758;SDS011;66684;47.568;18.734;2023-06-24T00:00:08;11.12;;;8.70;;
51758;SDS011;66684;47.568;18.734;2023-06-24T00:02:37;12.40;;;8.73;;
51758;SDS011;66684;47.568;18.734;2023-06-24T00:05:03;9.73;;;8.73;;
51758;SDS011;66684;47.568;18.734;2023-06-24T00:07:32;12.73;;;8.32;;
51758;SDS011;66684;47.568;18.734;2023-06-24T00:09:58;13.38;;;9.30;;
51758;SDS011;66684;47.568;18.734;2023-06-24T00:12:23;15.77;;;8.80;;
51758;SDS011;66684;47.568;18.734;2023-06-24T00:14:50;13.90;;;9.05;;
51758;SDS011;66684;47.568;18.734;2023-06-24T00:17:16;11.70;;;9.07;;
51758;SDS011;66684;47.568;18.734;2023-06-24T00:19:42;12.68;;;9.30;;
51758;SDS011;66684;47.568;18.734;2023-06-24T00:22:09;13.20;;;9.00;;
51758;SDS011;66684;47.568;18.734;2023-06-24T00:24:35;13.02;;;8.75;;
51758;SDS011;66684;47.568;18.734;2023-06-24T00:27:01;15.23;;;8.77;;
51758;SDS011;66684;47.568;18.734;2023-06-24T00:29:27;10.93;;;8.60;;
51758;SDS011;66684;47.568;18.734;2023-06-24T00:31:53;14.23;;;8.23;;
51758;SDS011;66684;47.568;18.734;2023-06-24T00:34:19;13.98;;;7.93;;
51758;SDS011;66684;47.568;18.734;2023-06-24T00:36:45;11.20;;;7.75;;
51758;SDS011;66684;47.568;18.734;2023-06-24T00:39:12;12.02;;;7.72;;
51758;SDS011;66684;47.568;18.734;2023-06-24T00:41:38;10.88;;;7.87;;
51758;SDS011;66684;47.568;18.734;2023-06-24T00:44:04;13.27;;;7.50;;
51758;SDS011;66684;47.568;18.734;2023-06-24T00:46:30;10.95;;;7.68;;
51758;SDS011;66684;47.568;18.734;2023-06-24T00:48:59;16.52;;;8.13;;
51758;SDS011;66684;47.568;18.734;2023-06-24T00:51:26;10.63;;;7.05;;
51758;SDS011;66684;47.568;18.734;2023-06-24T00:53:56;12.80;;;7.10;;
51758;SDS011;66684;47.568;18.734;2023-06-24T00:56:24;11.02;;;6.75;;
51758;SDS011;66684;47.568;18.734;2023-06-24T01:01:23;12.40;;;7.55;;
51758;SDS011;66684;47.568;18.734;2023-06-24T01:03:49;13.70;;;7.18;;
51758;SDS011;66684;47.568;18.734;2023-06-24T01:06:15;10.35;;;7.55;;
51758;SDS011;66684;47.568;18.734;2023-06-24T01:08:41;10.18;;;6.28;;
51758;SDS011;66684;47.568;18.734;2023-06-24T01:11:07;9.13;;;6.68;;
51758;SDS011;66684;47.568;18.734;2023-06-24T01:13:33;10.82;;;7.25;;
51758;SDS011;66684;47.568;18.734;2023-06-24T01:16:00;7.43;;;6.15;;
51758;SDS011;66684;47.568;18.734;2023-06-24T01:32:06;11.82;;;7.50;;
51758;SDS011;66684;47.568;18.734;2023-06-24T01:39:50;9.82;;;7.03;;
51758;SDS011;66684;47.568;18.734;2023-06-24T01:42:22;7.68;;;6.25;;
51758;SDS011;66684;47.568;18.734;2023-06-24T01:44:49;10.10;;;6.75;;
51758;SDS011;66684;47.568;18.734;2023-06-24T01:47:18;8.98;;;6.37;;
51758;SDS011;66684;47.568;18.734;2023-06-24T01:49:47;10.10;;;5.97;;
51758;SDS011;66684;47.568;18.734;2023-06-24T01:52:17;7.80;;;6.50;;
51758;SDS011;66684;47.568;18.734;2023-06-24T01:54:47;9.55;;;7.05;;
51758;SDS011;66684;47.568;18.734;2023-06-24T01:57:14;9.60;;;6.97;;
51758;SDS011;66684;47.568;18.734;2023-06-24T01:59:42;11.55;;;6.05;;
51758;SDS011;66684;47.568;18.734;2023-06-24T02:02:11;8.45;;;5.78;;
51758;SDS011;66684;47.568;18.734;2023-06-24T02:04:38;8.07;;;5.45;;
51758;SDS011;66684;47.568;18.734;2023-06-24T02:07:05;8.77;;;6.62;;
51758;SDS011;66684;47.568;18.734;2023-06-24T02:09:32;10.02;;;5.60;;
51758;SDS011;66684;47.568;18.734;2023-06-24T02:11:59;8.77;;;5.07;;
51758;SDS011;66684;47.568;18.734;2023-06-24T02:14:28;9.45;;;5.37;;
51758;SDS011;66684;47.568;18.734;2023-06-24T02:16:56;11.52;;;5.50;;
51758;SDS011;66684;47.568;18.734;2023-06-24T02:19:25;10.50;;;5.50;;
51758;SDS011;66684;47.568;18.734;2023-06-24T02:21:55;9.75;;;5.25;;
51758;SDS011;66684;47.568;18.734;2023-06-24T02:24:23;12.93;;;4.93;;
51758;SDS011;66684;47.568;18.734;2023-06-24T02:26:49;9.20;;;5.43;;
51758;SDS011;66684;47.568;18.734;2023-06-24T02:29:16;8.88;;;4.28;;
51758;SDS011;66684;47.568;18.734;2023-06-24T02:31:43;11.52;;;4.37;;
51758;SDS011;66684;47.568;18.734;2023-06-24T02:34:09;8.43;;;3.87;;
51758;SDS011;66684;47.568;18.734;2023-06-24T02:36:35;5.35;;;3.65;;
51758;SDS011;66684;47.568;18.734;2023-06-24T02:39:01;6.57;;;3.60;;
51758;SDS011;66684;47.568;18.734;2023-06-24T02:41:27;7.05;;;3.90;;
51758;SDS011;66684;47.568;18.734;2023-06-24T02:43:53;7.75;;;3.35;;
51758;SDS011;66684;47.568;18.734;2023-06-24T02:46:19;5.90;;;3.08;;
51758;SDS011;66684;47.568;18.734;2023-06-24T02:48:47;5.60;;;3.22;;
51758;SDS011;66684;47.568;18.734;2023-06-24T02:51:15;7.53;;;3.28;;
51758;SDS011;66684;47.568;18.734;2023-06-24T02:53:41;9.55;;;3.55;;
51758;SDS011;66684;47.568;18.734;2023-06-24T02:56:08;12.88;;;3.10;;
51758;SDS011;66684;47.568;18.734;2023-06-24T02:58:36;5.75;;;2.60;;
51758;SDS011;66684;47.568;18.734;2023-06-24T03:01:03;7.57;;;2.95;;
51758;SDS011;66684;47.568;18.734;2023-06-24T03:03:34;9.25;;;2.80;;
51758;SDS011;66684;47.568;18.734;2023-06-24T03:06:00;7.25;;;3.03;;
51758;SDS011;66684;47.568;18.734;2023-06-24T03:08:28;6.15;;;2.95;;
51758;SDS011;66684;47.568;18.734;2023-06-24T03:10:54;5.10;;;2.80;;
51758;SDS011;66684;47.568;18.734;2023-06-24T03:13:21;8.63;;;2.87;;
51758;SDS011;66684;47.568;18.734;2023-06-24T03:15:48;6.97;;;3.08;;
51758;SDS011;66684;47.568;18.734;2023-06-24T03:18:14;4.68;;;3.00;;
51758;SDS011;66684;47.568;18.734;2023-06-24T03:20:41;6.57;;;2.55;;
51758;SDS011;66684;47.568;18.734;2023-06-24T03:23:07;5.72;;;2.10;;
51758;SDS011;66684;47.568;18.734;2023-06-24T03:25:34;4.30;;;2.30;;
51758;SDS011;66684;47.568;18.734;2023-06-24T03:28:00;7.40;;;2.62;;
51758;SDS011;66684;47.568;18.734;2023-06-24T03:30:29;8.90;;;2.00;;
51758;SDS011;66684;47.568;18.734;2023-06-24T03:32:55;5.78;;;1.80;;
51758;SDS011;66684;47.568;18.734;2023-06-24T03:35:23;6.28;;;1.58;;
51758;SDS011;66684;47.568;18.734;2023-06-24T03:37:49;4.72;;;1.33;;
51758;SDS011;66684;47.568;18.734;2023-06-24T03:40:15;3.95;;;1.27;;
51758;SDS011;66684;47.568;18.734;2023-06-24T03:42:41;5.07;;;1.50;;
51758;SDS011;66684;47.568;18.734;2023-06-24T03:45:07;2.37;;;0.95;;
51758;SDS011;66684;47.568;18.734;2023-06-24T03:47:33;6.30;;;1.20;;
51758;SDS011;66684;47.568;18.734;2023-06-24T03:49:58;2.60;;;0.93;;
51758;SDS011;66684;47.568;18.734;2023-06-24T03:52:25;5.45;;;0.70;;
51758;SDS011;66684;47.568;18.734;2023-06-24T03:54:51;3.10;;;0.62;;
51758;SDS011;66684;47.568;18.734;2023-06-24T03:57:17;2.33;;;0.60;;
51758;SDS011;66684;47.568;18.734;2023-06-24T03:59:43;3.95;;;0.50;;
51758;SDS011;66684;47.568;18.734;2023-06-24T04:02:09;1.95;;;0.50;;
51758;SDS011;66684;47.568;18.734;2023-06-24T04:04:35;6.32;;;0.77;;
51758;SDS011;66684;47.568;18.734;2023-06-24T04:07:02;3.28;;;0.55;;
51758;SDS011;66684;47.568;18.734;2023-06-24T04:09:29;2.95;;;0.65;;
51758;SDS011;66684;47.568;18.734;2023-06-24T04:11:55;2.87;;;0.60;;
51758;SDS011;66684;47.568;18.734;2023-06-24T04:14:21;2.33;;;0.40;;
51758;SDS011;66684;47.568;18.734;2023-06-24T04:16:47;4.93;;;0.50;;
51758;SDS011;66684;47.568;18.734;2023-06-24T04:19:13;2.05;;;0.30;;
51758;SDS011;66684;47.568;18.734;2023-06-24T04:21:38;2.35;;;0.40;;
51758;SDS011;66684;47.568;18.734;2023-06-24T04:24:04;1.70;;;0.40;;
51758;SDS011;66684;47.568;18.734;2023-06-24T04:26:30;2.28;;;0.30;;
51758;SDS011;66684;47.568;18.734;2023-06-24T04:28:56;6.43;;;0.50;;
51758;SDS011;66684;47.568;18.734;2023-06-24T04:31:22;4.55;;;0.30;;
51758;SDS011;66684;47.568;18.734;2023-06-24T04:33:48;3.10;;;0.20;;
51758;SDS011;66684;47.568;18.734;2023-06-24T04:36:14;2.87;;;0.35;;
51758;SDS011;66684;47.568;18.734;2023-06-24T04:38:40;3.45;;;0.30;;
51758;SDS011;66684;47.568;18.734;2023-06-24T04:41:06;1.77;;;0.30;;
51758;SDS011;66684;47.568;18.734;2023-06-24T04:43:31;2.60;;;0.30;;
51758;SDS011;66684;47.568;18.734;2023-06-24T04:45:57;2.00;;;0.20;;
51758;SDS011;66684;47.568;18.734;2023-06-24T04:48:23;2.37;;;0.20;;
51758;SDS011;66684;47.568;18.734;2023-06-24T04:50:50;3.55;;;0.20;;
51758;SDS011;66684;47.568;18.734;2023-06-24T04:53:16;1.75;;;0.20;;
51758;SDS011;66684;47.568;18.734;2023-06-24T04:55:42;1.15;;;0.30;;
51758;SDS011;66684;47.568;18.734;2023-06-24T04:58:07;5.90;;;0.20;;
51758;SDS011;66684;47.568;18.734;2023-06-24T05:00:33;1.95;;;0.20;;
51758;SDS011;66684;47.568;18.734;2023-06-24T05:03:00;0.62;;;0.10;;
51758;SDS011;66684;47.568;18.734;2023-06-24T05:05:26;3.10;;;0.20;;
51758;SDS011;66684;47.568;18.734;2023-06-24T05:07:52;2.80;;;0.10;;
51758;SDS011;66684;47.568;18.734;2023-06-24T05:10:18;0.90;;;0.10;;
51758;SDS011;66684;47.568;18.734;2023-06-24T05:12:43;1.37;;;0.10;;
51758;SDS011;66684;47.568;18.734;2023-06-24T05:15:09;1.25;;;0.10;;
51758;SDS011;66684;47.568;18.734;2023-06-24T05:17:36;2.95;;;0.10;;
51758;SDS011;66684;47.568;18.734;2023-06-24T05:20:02;1.17;;;0.13;;
51758;SDS011;66684;47.568;18.734;2023-06-24T05:22:29;1.27;;;0.10;;
51758;SDS011;66684;47.568;18.734;2023-06-24T05:24:54;2.47;;;0.10;;
51758;SDS011;66684;47.568;18.734;2023-06-24T05:27:20;0.40;;;0.10;;
51758;SDS011;66684;47.568;18.734;2023-06-24T05:29:46;1.35;;;0.20;;
51758;SDS011;66684;47.568;18.734;2023-06-24T05:32:13;1.10;;;0.10;;
51758;SDS011;66684;47.568;18.734;2023-06-24T05:34:38;2.37;;;0.35;;
51758;SDS011;66684;47.568;18.734;2023-06-24T05:37:04;1.55;;;0.10;;
51758;SDS011;66684;47.568;18.734;2023-06-24T05:39:31;1.17;;;0.10;;
51758;SDS011;66684;47.568;18.734;2023-06-24T05:41:57;0.52;;;0.10;;
51758;SDS011;66684;47.568;18.734;2023-06-24T05:44:23;0.93;;;0.10;;
51758;SDS011;66684;47.568;18.734;2023-06-24T05:46:49;1.90;;;0.20;;
51758;SDS011;66684;47.568;18.734;2023-06-24T05:49:15;1.50;;;0.20;;
51758;SDS011;66684;47.568;18.734;2023-06-24T05:51:41;2.40;;;0.25;;
51758;SDS011;66684;47.568;18.734;2023-06-24T05:54:07;1.55;;;0.10;;
51758;SDS011;66684;47.568;18.734;2023-06-24T05:56:33;1.80;;;0.20;;
51758;SDS011;66684;47.568;18.734;2023-06-24T05:58:59;1.98;;;0.20;;
51758;SDS011;66684;47.568;18.734;2023-06-24T06:01:25;0.82;;;0.10;;
51758;SDS011;66684;47.568;18.734;2023-06-24T06:03:51;2.42;;;0.20;;
51758;SDS011;66684;47.568;18.734;2023-06-24T06:06:17;1.73;;;0.10;;
51758;SDS011;66684;47.568;18.734;2023-06-24T06:08:43;1.15;;;0.10;;
51758;SDS011;66684;47.568;18.734;2023-06-24T06:11:09;2.40;;;0.35;;
51758;SDS011;66684;47.568;18.734;2023-06-24T06:13:35;0.93;;;0.10;;
51758;SDS011;66684;47.568;18.734;2023-06-24T06:16:01;3.12;;;0.20;;
51758;SDS011;66684;47.568;18.734;2023-06-24T06:18:27;2.80;;;0.20;;
51758;SDS011;66684;47.568;18.734;2023-06-24T06:20:53;2.45;;;0.20;;
51758;SDS011;66684;47.568;18.734;2023-06-24T06:23:19;1.55;;;0.20;;
51758;SDS011;66684;47.568;18.734;2023-06-24T06:25:44;1.95;;;0.20;;
51758;SDS011;66684;47.568;18.734;2023-06-24T06:28:11;1.75;;;0.20;;
51758;SDS011;66684;47.568;18.734;2023-06-24T06:30:37;0.80;;;0.15;;
51758;SDS011;66684;47.568;18.734;2023-06-24T06:33:04;1.77;;;0.22;;
51758;SDS011;66684;47.568;18.734;2023-06-24T06:35:30;1.05;;;0.20;;
51758;SDS011;66684;47.568;18.734;2023-06-24T06:37:57;3.15;;;0.20;;
51758;SDS011;66684;47.568;18.734;2023-06-24T06:40:23;4.10;;;0.75;;
51758;SDS011;66684;47.568;18.734;2023-06-24T06:42:49;2.85;;;0.52;;
51758;SDS011;66684;47.568;18.734;2023-06-24T06:45:15;0.80;;;0.25;;
51758;SDS011;66684;47.568;18.734;2023-06-24T06:47:41;1.62;;;0.30;;
51758;SDS011;66684;47.568;18.734;2023-06-24T06:50:07;1.95;;;0.20;;
51758;SDS011;66684;47.568;18.734;2023-06-24T06:52:33;1.60;;;0.20;;
51758;SDS011;66684;47.568;18.734;2023-06-24T06:54:59;0.90;;;0.20;;
51758;SDS011;66684;47.568;18.734;2023-06-24T06:57:25;2.05;;;0.20;;
51758;SDS011;66684;47.568;18.734;2023-06-24T06:59:58;1.00;;;0.20;;
51758;SDS011;66684;47.568;18.734;2023-06-24T07:02:24;1.40;;;0.20;;
51758;SDS011;66684;47.568;18.734;2023-06-24T07:04:49;2.58;;;0.57;;
51758;SDS011;66684;47.568;18.734;2023-06-24T07:07:16;1.20;;;0.20;;
51758;SDS011;66684;47.568;18.734;2023-06-24T07:09:42;1.30;;;0.25;;
51758;SDS011;66684;47.568;18.734;2023-06-24T07:12:08;3.80;;;0.30;;
51758;SDS011;66684;47.568;18.734;2023-06-24T07:14:34;1.37;;;0.30;;
51758;SDS011;66684;47.568;18.734;2023-06-24T07:17:00;0.68;;;0.20;;
51758;SDS011;66684;47.568;18.734;2023-06-24T07:19:26;2.87;;;0.60;;
51758;SDS011;66684;47.568;18.734;2023-06-24T07:21:52;1.48;;;0.20;;
51758;SDS011;66684;47.568;18.734;2023-06-24T07:24:18;1.85;;;0.52;;
51758;SDS011;66684;47.568;18.734;2023-06-24T07:26:44;1.65;;;0.30;;
51758;SDS011;66684;47.568;18.734;2023-06-24T07:29:10;5.12;;;0.60;;
51758;SDS011;66684;47.568;18.734;2023-06-24T07:31:36;1.12;;;0.40;;
51758;SDS011;66684;47.568;18.734;2023-06-24T07:34:02;0.80;;;0.30;;
51758;SDS011;66684;47.568;18.734;2023-06-24T07:36:28;4.20;;;0.60;;
51758;SDS011;66684;47.568;18.734;2023-06-24T07:38:54;2.80;;;0.30;;
51758;SDS011;66684;47.568;18.734;2023-06-24T07:41:19;3.30;;;0.30;;
51758;SDS011;66684;47.568;18.734;2023-06-24T07:43:45;1.70;;;0.40;;
51758;SDS011;66684;47.568;18.734;2023-06-24T07:46:11;0.98;;;0.20;;
51758;SDS011;66684;47.568;18.734;2023-06-24T07:48:37;1.67;;;0.30;;
51758;SDS011;66684;47.568;18.734;2023-06-24T07:51:03;1.00;;;0.30;;
51758;SDS011;66684;47.568;18.734;2023-06-24T07:53:29;3.72;;;0.22;;
51758;SDS011;66684;47.568;18.734;2023-06-24T07:55:55;2.25;;;0.25;;
51758;SDS011;66684;47.568;18.734;2023-06-24T07:58:21;5.05;;;0.28;;
51758;SDS011;66684;47.568;18.734;2023-06-24T08:00:47;0.77;;;0.20;;
51758;SDS011;66684;47.568;18.734;2023-06-24T08:03:13;0.57;;;0.20;;
51758;SDS011;66684;47.568;18.734;2023-06-24T08:05:39;0.90;;;0.32;;
51758;SDS011;66684;47.568;18.734;2023-06-24T08:08:05;5.45;;;0.30;;
51758;SDS011;66684;47.568;18.734;2023-06-24T08:10:32;3.90;;;0.43;;
51758;SDS011;66684;47.568;18.734;2023-06-24T08:12:58;6.32;;;0.30;;
51758;SDS011;66684;47.568;18.734;2023-06-24T08:15:24;1.83;;;0.25;;
51758;SDS011;66684;47.568;18.734;2023-06-24T08:17:50;3.08;;;0.25;;
51758;SDS011;66684;47.568;18.734;2023-06-24T08:20:20;1.67;;;0.30;;
51758;SDS011;66684;47.568;18.734;2023-06-24T08:22:47;1.00;;;0.20;;
51758;SDS011;66684;47.568;18.734;2023-06-24T08:25:13;2.83;;;0.30;;
51758;SDS011;66684;47.568;18.734;2023-06-24T08:27:39;1.00;;;0.20;;
51758;SDS011;66684;47.568;18.734;2023-06-24T08:30:05;2.53;;;0.25;;
51758;SDS011;66684;47.568;18.734;2023-06-24T08:32:32;0.98;;;0.20;;
51758;SDS011;66684;47.568;18.734;2023-06-24T08:34:58;1.70;;;0.20;;
51758;SDS011;66684;47.568;18.734;2023-06-24T08:37:24;0.90;;;0.20;;
51758;SDS011;66684;47.568;18.734;2023-06-24T08:39:50;1.90;;;0.30;;
51758;SDS011;66684;47.568;18.734;2023-06-24T08:42:16;0.65;;;0.30;;
51758;SDS011;66684;47.568;18.734;2023-06-24T08:44:41;0.50;;;0.20;;
51758;SDS011;66684;47.568;18.734;2023-06-24T08:47:07;1.95;;;0.28;;
51758;SDS011;66684;47.568;18.734;2023-06-24T08:49:34;0.95;;;0.20;;
51758;SDS011;66684;47.568;18.734;2023-06-24T08:52:25;3.20;;;0.30;;
51758;SDS011;66684;47.568;18.734;2023-06-24T08:54:55;0.95;;;0.20;;
51758;SDS011;66684;47.568;18.734;2023-06-24T08:57:24;1.98;;;0.20;;
51758;SDS011;66684;47.568;18.734;2023-06-24T08:59:50;2.40;;;0.43;;
51758;SDS011;66684;47.568;18.734;2023-06-24T09:02:16;4.90;;;0.20;;
51758;SDS011;66684;47.568;18.734;2023-06-24T09:04:42;0.90;;;0.20;;
51758;SDS011;66684;47.568;18.734;2023-06-24T09:07:08;0.95;;;0.28;;
51758;SDS011;66684;47.568;18.734;2023-06-24T09:09:41;0.75;;;0.30;;
51758;SDS011;66684;47.568;18.734;2023-06-24T09:12:10;1.65;;;0.20;;
51758;SDS011;66684;47.568;18.734;2023-06-24T09:14:38;0.62;;;0.20;;
51758;SDS011;66684;47.568;18.734;2023-06-24T09:17:03;1.70;;;0.20;;
51758;SDS011;66684;47.568;18.734;2023-06-24T09:19:30;1.87;;;0.20;;
51758;SDS011;66684;47.568;18.734;2023-06-24T09:24:27;1.73;;;0.20;;
51758;SDS011;66684;47.568;18.734;2023-06-24T09:26:55;1.25;;;0.20;;
51758;SDS011;66684;47.568;18.734;2023-06-24T09:29:27;1.45;;;0.30;;
51758;SDS011;66684;47.568;18.734;2023-06-24T09:31:54;1.10;;;0.20;;
51758;SDS011;66684;47.568;18.734;2023-06-24T09:34:22;0.65;;;0.20;;
51758;SDS011;66684;47.568;18.734;2023-06-24T09:36:52;0.85;;;0.20;;
51758;SDS011;66684;47.568;18.734;2023-06-24T09:39:19;0.50;;;0.30;;
51758;SDS011;66684;47.568;18.734;2023-06-24T09:41:51;2.65;;;0.40;;
51758;SDS011;66684;47.568;18.734;2023-06-24T09:44:17;0.93;;;0.10;;
51758;SDS011;66684;47.568;18.734;2023-06-24T09:46:45;0.88;;;0.20;;
51758;SDS011;66684;47.568;18.734;2023-06-24T09:49:12;1.02;;;0.20;;
51758;SDS011;66684;47.568;18.734;2023-06-24T09:51:39;2.90;;;0.30;;
51758;SDS011;66684;47.568;18.734;2023-06-24T09:54:08;0.25;;;0.20;;
51758;SDS011;66684;47.568;18.734;2023-06-24T09:56:35;0.93;;;0.20;;
51758;SDS011;66684;47.568;18.734;2023-06-24T09:59:05;1.15;;;0.20;;
51758;SDS011;66684;47.568;18.734;2023-06-24T10:01:32;0.25;;;0.10;;
51758;SDS011;66684;47.568;18.734;2023-06-24T10:04:01;0.93;;;0.30;;
51758;SDS011;66684;47.568;18.734;2023-06-24T10:06:27;0.45;;;0.10;;
51758;SDS011;66684;47.568;18.734;2023-06-24T10:08:54;1.33;;;0.20;;
51758;SDS011;66684;47.568;18.734;2023-06-24T10:11:20;0.40;;;0.25;;
51758;SDS011;66684;47.568;18.734;2023-06-24T10:13:46;0.60;;;0.30;;
51758;SDS011;66684;47.568;18.734;2023-06-24T10:16:12;0.52;;;0.20;;
51758;SDS011;66684;47.568;18.734;2023-06-24T10:18:38;0.77;;;0.20;;
51758;SDS011;66684;47.568;18.734;2023-06-24T10:21:07;0.93;;;0.20;;
51758;SDS011;66684;47.568;18.734;2023-06-24T10:23:51;1.12;;;0.43;;
51758;SDS011;66684;47.568;18.734;2023-06-24T10:26:28;0.20;;;0.20;;
51758;SDS011;66684;47.568;18.734;2023-06-24T10:44:57;1.02;;;0.32;;
51758;SDS011;66684;47.568;18.734;2023-06-24T10:47:24;1.73;;;0.20;;
51758;SDS011;66684;47.568;18.734;2023-06-24T10:49:52;2.35;;;0.30;;
51758;SDS011;66684;47.568;18.734;2023-06-24T10:52:21;0.93;;;0.30;;
51758;SDS011;66684;47.568;18.734;2023-06-24T10:54:49;0.52;;;0.28;;
51758;SDS011;66684;47.568;18.734;2023-06-24T10:57:16;0.62;;;0.10;;
51758;SDS011;66684;47.568;18.734;2023-06-24T10:59:48;1.00;;;0.20;;
51758;SDS011;66684;47.568;18.734;2023-06-24T11:02:17;0.40;;;0.20;;
51758;SDS011;66684;47.568;18.734;2023-06-24T11:04:44;1.52;;;0.25;;
51758;SDS011;66684;47.568;18.734;2023-06-24T11:07:12;1.08;;;0.30;;
51758;SDS011;66684;47.568;18.734;2023-06-24T11:09:38;0.90;;;0.28;;
51758;SDS011;66684;47.568;18.734;2023-06-24T11:12:06;0.57;;;0.20;;
51758;SDS011;66684;47.568;18.734;2023-06-24T11:14:35;1.17;;;0.10;;
51758;SDS011;66684;47.568;18.734;2023-06-24T11:17:01;0.50;;;0.20;;
51758;SDS011;66684;47.568;18.734;2023-06-24T11:19:29;0.65;;;0.25;;
51758;SDS011;66684;47.568;18.734;2023-06-24T11:21:59;5.35;;;0.30;;
51758;SDS011;66684;47.568;18.734;2023-06-24T11:24:27;0.52;;;0.30;;
51758;SDS011;66684;47.568;18.734;2023-06-24T11:26:53;2.37;;;0.20;;
51758;SDS011;66684;47.568;18.734;2023-06-24T11:29:19;1.33;;;0.40;;
51758;SDS011;66684;47.568;18.734;2023-06-24T11:31:45;4.20;;;0.30;;
51758;SDS011;66684;47.568;18.734;2023-06-24T11:34:11;1.80;;;0.30;;
51758;SDS011;66684;47.568;18.734;2023-06-24T11:36:37;0.90;;;0.37;;
51758;SDS011;66684;47.568;18.734;2023-06-24T11:39:03;3.05;;;0.47;;
51758;SDS011;66684;47.568;18.734;2023-06-24T11:41:29;0.73;;;0.30;;
51758;SDS011;66684;47.568;18.734;2023-06-24T11:43:58;0.90;;;0.45;;
51758;SDS011;66684;47.568;18.734;2023-06-24T11:46:25;2.42;;;0.40;;
51758;SDS011;66684;47.568;18.734;2023-06-24T11:48:52;2.47;;;0.60;;
51758;SDS011;66684;47.568;18.734;2023-06-24T11:51:28;1.85;;;0.50;;
51758;SDS011;66684;47.568;18.734;2023-06-24T11:53:58;2.40;;;0.40;;
51758;SDS011;66684;47.568;18.734;2023-06-24T11:56:37;2.33;;;0.40;;
51758;SDS011;66684;47.568;18.734;2023-06-24T11:59:16;0.50;;;0.30;;
51758;SDS011;66684;47.568;18.734;2023-06-24T12:01:56;0.88;;;0.40;;
51758;SDS011;66684;47.568;18.734;2023-06-24T12:04:32;2.35;;;0.47;;
51758;SDS011;66684;47.568;18.734;2023-06-24T12:06:59;3.25;;;0.60;;
51758;SDS011;66684;47.568;18.734;2023-06-24T12:09:25;1.10;;;0.30;;
51758;SDS011;66684;47.568;18.734;2023-06-24T12:11:52;0.90;;;0.45;;
51758;SDS011;66684;47.568;18.734;2023-06-24T12:14:18;7.12;;;0.55;;
51758;SDS011;66684;47.568;18.734;2023-06-24T12:16:44;0.90;;;0.40;;
51758;SDS011;66684;47.568;18.734;2023-06-24T12:19:10;2.22;;;0.40;;
51758;SDS011;66684;47.568;18.734;2023-06-24T12:21:37;0.75;;;0.40;;
51758;SDS011;66684;47.568;18.734;2023-06-24T12:24:03;0.70;;;0.30;;
51758;SDS011;66684;47.568;18.734;2023-06-24T12:26:30;1.08;;;0.40;;
51758;SDS011;66684;47.568;18.734;2023-06-24T12:28:57;1.73;;;0.65;;
51758;SDS011;66684;47.568;18.734;2023-06-24T12:31:23;1.50;;;0.60;;
51758;SDS011;66684;47.568;18.734;2023-06-24T12:33:50;5.22;;;2.35;;
51758;SDS011;66684;47.568;18.734;2023-06-24T12:36:18;1.25;;;0.62;;
51758;SDS011;66684;47.568;18.734;2023-06-24T12:38:44;3.90;;;0.50;;
51758;SDS011;66684;47.568;18.734;2023-06-24T12:41:10;1.60;;;0.43;;
51758;SDS011;66684;47.568;18.734;2023-06-24T12:43:36;1.30;;;0.73;;
51758;SDS011;66684;47.568;18.734;2023-06-24T12:46:02;2.62;;;0.75;;
51758;SDS011;66684;47.568;18.734;2023-06-24T12:48:28;2.40;;;1.00;;
51758;SDS011;66684;47.568;18.734;2023-06-24T12:50:53;4.93;;;0.88;;
51758;SDS011;66684;47.568;18.734;2023-06-24T12:53:20;6.82;;;1.00;;
51758;SDS011;66684;47.568;18.734;2023-06-24T12:55:46;3.90;;;1.48;;
51758;SDS011;66684;47.568;18.734;2023-06-24T12:58:16;1.00;;;0.80;;
51758;SDS011;66684;47.568;18.734;2023-06-24T13:00:44;3.70;;;1.25;;
51758;SDS011;66684;47.568;18.734;2023-06-24T13:03:10;3.00;;;1.17;;
51758;SDS011;66684;47.568;18.734;2023-06-24T13:05:36;1.37;;;1.20;;
51758;SDS011;66684;47.568;18.734;2023-06-24T13:08:02;2.62;;;1.37;;
51758;SDS011;66684;47.568;18.734;2023-06-24T13:10:28;5.55;;;1.27;;
51758;SDS011;66684;47.568;18.734;2023-06-24T13:12:54;2.60;;;1.20;;
51758;SDS011;66684;47.568;18.734;2023-06-24T13:15:21;1.90;;;1.48;;
51758;SDS011;66684;47.568;18.734;2023-06-24T13:17:47;1.80;;;1.20;;
51758;SDS011;66684;47.568;18.734;2023-06-24T13:20:13;2.03;;;1.37;;
51758;SDS011;66684;47.568;18.734;2023-06-24T13:22:39;3.33;;;1.40;;
51758;SDS011;66684;47.568;18.734;2023-06-24T13:25:05;2.28;;;1.50;;
51758;SDS011;66684;47.568;18.734;2023-06-24T13:27:31;1.87;;;1.45;;
51758;SDS011;66684;47.568;18.734;2023-06-24T13:29:57;3.50;;;2.08;;
51758;SDS011;66684;47.568;18.734;2023-06-24T13:32:23;4.68;;;1.73;;
51758;SDS011;66684;47.568;18.734;2023-06-24T13:34:49;3.17;;;1.50;;
51758;SDS011;66684;47.568;18.734;2023-06-24T13:37:15;1.90;;;1.60;;
51758;SDS011;66684;47.568;18.734;2023-06-24T13:39:40;1.95;;;1.75;;
51758;SDS011;66684;47.568;18.734;2023-06-24T13:42:06;4.85;;;1.85;;
51758;SDS011;66684;47.568;18.734;2023-06-24T13:44:32;8.73;;;2.20;;
51758;SDS011;66684;47.568;18.734;2023-06-24T13:46:58;1.52;;;1.42;;
51758;SDS011;66684;47.568;18.734;2023-06-24T13:49:24;4.60;;;1.50;;
51758;SDS011;66684;47.568;18.734;2023-06-24T13:51:51;3.05;;;1.67;;
51758;SDS011;66684;47.568;18.734;2023-06-24T13:54:17;2.62;;;1.80;;
51758;SDS011;66684;47.568;18.734;2023-06-24T13:56:44;2.50;;;1.90;;
51758;SDS011;66684;47.568;18.734;2023-06-24T13:59:10;3.42;;;1.95;;
51758;SDS011;66684;47.568;18.734;2023-06-24T14:01:36;2.55;;;1.80;;
51758;SDS011;66684;47.568;18.734;2023-06-24T14:04:02;3.25;;;2.08;;
51758;SDS011;66684;47.568;18.734;2023-06-24T14:06:27;2.87;;;2.30;;
51758;SDS011;66684;47.568;18.734;2023-06-24T14:08:53;5.40;;;2.35;;
51758;SDS011;66684;47.568;18.734;2023-06-24T14:11:19;2.22;;;2.03;;
51758;SDS011;66684;47.568;18.734;2023-06-24T14:13:45;2.35;;;2.10;;
51758;SDS011;66684;47.568;18.734;2023-06-24T14:16:12;3.72;;;2.53;;
51758;SDS011;66684;47.568;18.734;2023-06-24T14:18:38;4.07;;;1.62;;
51758;SDS011;66684;47.568;18.734;2023-06-24T14:21:04;3.40;;;2.22;;
51758;SDS011;66684;47.568;18.734;2023-06-24T14:23:32;4.87;;;2.00;;
51758;SDS011;66684;47.568;18.734;2023-06-24T14:25:58;2.72;;;1.95;;
51758;SDS011;66684;47.568;18.734;2023-06-24T14:28:25;2.97;;;1.95;;
51758;SDS011;66684;47.568;18.734;2023-06-24T14:30:52;2.83;;;1.62;;
51758;SDS011;66684;47.568;18.734;2023-06-24T14:33:17;1.55;;;1.45;;
51758;SDS011;66684;47.568;18.734;2023-06-24T14:35:43;2.25;;;1.60;;
51758;SDS011;66684;47.568;18.734;2023-06-24T14:38:10;2.58;;;1.40;;
51758;SDS011;66684;47.568;18.734;2023-06-24T14:40:36;1.73;;;1.23;;
51758;SDS011;66684;47.568;18.734;2023-06-24T14:43:02;1.77;;;1.50;;
51758;SDS011;66684;47.568;18.734;2023-06-24T14:45:27;5.18;;;1.35;;
51758;SDS011;66684;47.568;18.734;2023-06-24T14:47:53;1.58;;;1.20;;
51758;SDS011;66684;47.568;18.734;2023-06-24T14:50:19;3.28;;;1.60;;
51758;SDS011;66684;47.568;18.734;2023-06-24T14:52:45;1.50;;;1.40;;
51758;SDS011;66684;47.568;18.734;2023-06-24T14:55:11;1.90;;;1.70;;
51758;SDS011;66684;47.568;18.734;2023-06-24T14:57:37;2.55;;;1.60;;
51758;SDS011;66684;47.568;18.734;2023-06-24T15:00:05;6.25;;;1.80;;
51758;SDS011;66684;47.568;18.734;2023-06-24T15:02:34;2.10;;;1.65;;
51758;SDS011;66684;47.568;18.734;2023-06-24T15:05:01;1.90;;;1.70;;
51758;SDS011;66684;47.568;18.734;2023-06-24T15:07:27;3.33;;;1.40;;
51758;SDS011;66684;47.568;18.734;2023-06-24T15:09:53;2.83;;;1.50;;